Time;durP1;ratioP1;P1;durP2;ratioP2;P2;SDS_P1;SDS_P2;PMS_P1;PMS_P2;Temp;Humidity;BMP_temperature;BMP_pressure;BME280_temperature;BME280_humidity;BME280_pressure;Samples;Min_cycle;Max_cycle;Signal;HPM_P1;HPM_P2
2023/07/18 00:00:14;;;;;;;6.20;5.20;;;;;;;;;;108323;1272;38864;-39
2023/07/18 00:03:10;;;;;;;6.30;5.30;;;;;;;;;;108358;1256;43195;-38
2023/07/18 00:05:45;;;;;;;5.80;5.00;;;;;;;;;;108275;1260;42083;-37
2023/07/18 00:08:19;;;;;;;6.00;4.90;;;;;;;;;;108354;1271;40781;-36
2023/07/18 00:10:54;;;;;;;6.40;5.00;;;;;;;;;;108351;1269;38543;-37
2023/07/18 00:13:29;;;;;;;6.80;5.00;;;;;;;;;;108349;1260;39953;-37
2023/07/18 00:16:03;;;;;;;5.90;5.00;;;;;;;;;;108279;1257;41704;-37
2023/07/18 00:18:40;;;;;;;6.90;5.50;;;;;;;;;;108266;1272;40677;-37
2023/07/18 00:21:15;;;;;;;6.40;5.40;;;;;;;;;;108266;1273;40191;-37
2023/07/18 00:23:51;;;;;;;6.30;5.30;;;;;;;;;;108298;1272;40115;-37
2023/07/18 00:26:25;;;;;;;6.50;5.40;;;;;;;;;;108270;1259;42402;-38
2023/07/18 00:28:59;;;;;;;6.70;5.50;;;;;;;;;;108322;1271;41000;-37
2023/07/18 00:31:34;;;;;;;7.40;5.70;;;;;;;;;;108335;1272;40055;-37
2023/07/18 00:34:08;;;;;;;6.50;5.30;;;;;;;;;;108346;1258;40199;-38
2023/07/18 00:36:43;;;;;;;6.40;5.70;;;;;;;;;;108244;1260;41778;-37
2023/07/18 00:39:18;;;;;;;7.40;5.60;;;;;;;;;;108270;1272;40719;-38
2023/07/18 00:41:53;;;;;;;6.90;5.30;;;;;;;;;;108282;1257;38847;-37
2023/07/18 00:44:28;;;;;;;7.00;5.70;;;;;;;;;;108315;1269;40425;-38
2023/07/18 00:47:03;;;;;;;6.60;5.50;;;;;;;;;;108231;1261;41746;-38
2023/07/18 00:49:39;;;;;;;6.30;5.10;;;;;;;;;;108293;1272;40989;-38
2023/07/18 00:52:14;;;;;;;7.30;5.50;;;;;;;;;;108244;1272;39019;-38
2023/07/18 00:54:49;;;;;;;5.60;4.90;;;;;;;;;;108284;1271;39839;-38
2023/07/18 00:57:23;;;;;;;6.10;5.00;;;;;;;;;;108218;1261;41864;-38
2023/07/18 00:59:57;;;;;;;6.10;5.30;;;;;;;;;;108238;1269;40912;-38
2023/07/18 01:02:33;;;;;;;6.70;5.30;;;;;;;;;;108264;1272;38644;-38
2023/07/18 01:05:09;;;;;;;6.70;5.40;;;;;;;;;;108243;1272;40113;-38
2023/07/18 01:07:44;;;;;;;6.90;5.60;;;;;;;;;;108194;1260;41459;-38
2023/07/18 01:10:24;;;;;;;6.90;5.30;;;;;;;;;;108257;1271;40825;-37
2023/07/18 01:13:01;;;;;;;6.80;5.30;;;;;;;;;;108251;1262;38836;-38
2023/07/18 01:15:36;;;;;;;6.20;5.30;;;;;;;;;;108275;1271;39874;-37
2023/07/18 01:18:13;;;;;;;7.00;5.40;;;;;;;;;;108214;1263;42001;-38
2023/07/18 01:20:48;;;;;;;7.00;5.50;;;;;;;;;;108244;1269;41300;-38
2023/07/18 01:23:24;;;;;;;7.80;5.10;;;;;;;;;;108295;1271;38894;-38
2023/07/18 01:25:58;;;;;;;6.90;5.20;;;;;;;;;;108285;1271;41528;-38
2023/07/18 01:28:32;;;;;;;5.60;5.00;;;;;;;;;;108203;1262;42956;-37
2023/07/18 01:31:09;;;;;;;6.30;5.20;;;;;;;;;;108246;1260;40617;-38
2023/07/18 01:33:43;;;;;;;6.20;5.20;;;;;;;;;;108300;1267;38797;-38
2023/07/18 01:36:18;;;;;;;6.80;4.70;;;;;;;;;;108242;1271;39831;-37
2023/07/18 01:38:52;;;;;;;5.80;4.60;;;;;;;;;;108219;1262;43092;-38
2023/07/18 01:41:27;;;;;;;6.10;4.70;;;;;;;;;;108254;1271;42047;-38
2023/07/18 01:44:01;;;;;;;6.10;4.70;;;;;;;;;;108261;1272;38817;-38
2023/07/18 01:46:35;;;;;;;6.60;5.00;;;;;;;;;;108236;1272;40046;-38
2023/07/18 01:49:09;;;;;;;5.70;4.60;;;;;;;;;;108300;1259;43049;-38
2023/07/18 01:51:44;;;;;;;6.60;4.60;;;;;;;;;;108333;1271;40503;-38
2023/07/18 01:54:18;;;;;;;5.70;4.50;;;;;;;;;;108290;1267;38454;-38
2023/07/18 01:56:52;;;;;;;6.10;4.50;;;;;;;;;;108362;1263;40137;-38
2023/07/18 01:59:26;;;;;;;5.70;4.10;;;;;;;;;;108253;1261;47443;-38
2023/07/18 02:02:02;;;;;;;6.20;4.10;;;;;;;;;;108306;1262;40478;-38
2023/07/18 02:04:37;;;;;;;5.30;4.10;;;;;;;;;;108267;1272;38914;-38
2023/07/18 02:07:11;;;;;;;5.80;4.00;;;;;;;;;;108273;1272;39798;-38
2023/07/18 02:09:45;;;;;;;6.00;3.60;;;;;;;;;;108301;1260;47587;-38
2023/07/18 02:12:20;;;;;;;5.40;3.60;;;;;;;;;;108372;1271;41128;-38
2023/07/18 02:14:54;;;;;;;5.60;3.80;;;;;;;;;;108391;1269;38892;-37
2023/07/18 02:17:29;;;;;;;5.10;3.60;;;;;;;;;;108323;1260;40064;-38
2023/07/18 02:20:08;;;;;;;5.30;3.60;;;;;;;;;;108204;1260;47724;-38
2023/07/18 02:22:44;;;;;;;5.70;3.70;;;;;;;;;;108286;1261;41350;-37
2023/07/18 02:25:19;;;;;;;6.10;3.70;;;;;;;;;;108264;1273;38872;-37
2023/07/18 02:27:53;;;;;;;5.60;3.70;;;;;;;;;;108282;1266;39947;-36
2023/07/18 02:30:28;;;;;;;5.30;3.50;;;;;;;;;;108337;1269;47268;-36
2023/07/18 02:33:02;;;;;;;5.40;3.50;;;;;;;;;;108359;1273;40653;-38
2023/07/18 02:35:36;;;;;;;5.60;3.50;;;;;;;;;;108304;1257;38574;-37
2023/07/18 02:38:10;;;;;;;4.80;3.30;;;;;;;;;;108304;1266;39761;-37
2023/07/18 02:40:47;;;;;;;5.40;3.30;;;;;;;;;;108248;1267;47984;-37
2023/07/18 02:43:21;;;;;;;5.90;3.50;;;;;;;;;;108264;1263;41333;-37
2023/07/18 02:45:56;;;;;;;5.70;3.50;;;;;;;;;;108277;1271;39119;-38
2023/07/18 02:48:30;;;;;;;5.50;3.50;;;;;;;;;;108257;1273;40297;-36
2023/07/18 02:51:04;;;;;;;6.20;3.30;;;;;;;;;;107669;1272;891449;-37
2023/07/18 02:53:39;;;;;;;5.30;3.50;;;;;;;;;;108324;1272;40649;-37
2023/07/18 02:56:14;;;;;;;5.00;3.30;;;;;;;;;;108337;1271;38860;-38
2023/07/18 02:58:49;;;;;;;5.80;3.30;;;;;;;;;;108269;1273;40089;-38
2023/07/18 03:01:24;;;;;;;4.70;3.20;;;;;;;;;;108261;1261;48303;-37
2023/07/18 03:03:59;;;;;;;5.30;3.20;;;;;;;;;;108274;1260;40697;-38
2023/07/18 03:06:34;;;;;;;5.00;3.00;;;;;;;;;;108309;1273;39956;-38
2023/07/18 03:09:11;;;;;;;5.10;3.00;;;;;;;;;;108254;1271;39821;-38
2023/07/18 03:11:45;;;;;;;4.80;3.00;;;;;;;;;;108349;1259;41727;-37
2023/07/18 03:14:20;;;;;;;5.20;3.00;;;;;;;;;;108336;1273;40618;-37
2023/07/18 03:16:54;;;;;;;5.30;3.10;;;;;;;;;;108307;1269;38805;-37
2023/07/18 03:19:31;;;;;;;5.10;3.30;;;;;;;;;;108310;1256;40142;-37
2023/07/18 03:22:06;;;;;;;5.50;3.10;;;;;;;;;;108250;1271;43086;-38
2023/07/18 03:24:40;;;;;;;5.60;3.00;;;;;;;;;;108285;1263;40627;-36
2023/07/18 03:27:18;;;;;;;5.00;2.90;;;;;;;;;;108320;1273;38589;-36
2023/07/18 03:29:52;;;;;;;5.70;3.10;;;;;;;;;;108258;1257;39896;-37
2023/07/18 03:32:26;;;;;;;4.50;2.90;;;;;;;;;;108334;1271;41640;-37
2023/07/18 03:35:01;;;;;;;5.20;3.00;;;;;;;;;;108319;1261;40605;-37
2023/07/18 03:37:35;;;;;;;4.60;3.00;;;;;;;;;;108339;1272;40071;-37
2023/07/18 03:40:15;;;;;;;5.10;3.20;;;;;;;;;;108292;1257;41450;-37
2023/07/18 03:42:50;;;;;;;4.60;3.00;;;;;;;;;;108288;1262;41511;-37
2023/07/18 03:45:25;;;;;;;4.70;2.90;;;;;;;;;;108309;1273;42209;-37
2023/07/18 03:47:59;;;;;;;5.70;2.90;;;;;;;;;;108265;1273;38548;-36
2023/07/18 03:50:33;;;;;;;5.20;2.80;;;;;;;;;;108331;1257;40117;-37
2023/07/18 03:53:08;;;;;;;5.20;2.90;;;;;;;;;;108354;1257;41977;-36
2023/07/18 03:55:43;;;;;;;4.70;2.90;;;;;;;;;;108328;1272;40935;-36
2023/07/18 03:58:17;;;;;;;6.00;3.10;;;;;;;;;;108314;1273;38675;-36
2023/07/18 04:00:52;;;;;;;5.00;2.80;;;;;;;;;;108257;1267;41213;-36
2023/07/18 04:03:27;;;;;;;4.90;2.90;;;;;;;;;;108295;1260;42447;-36
2023/07/18 04:06:01;;;;;;;5.30;3.10;;;;;;;;;;108147;1256;175473;-37
2023/07/18 04:08:35;;;;;;;4.50;2.90;;;;;;;;;;108324;1263;38869;-37
2023/07/18 04:11:09;;;;;;;5.10;3.20;;;;;;;;;;108282;1260;39990;-37
2023/07/18 04:13:46;;;;;;;4.70;2.90;;;;;;;;;;108319;1271;41940;-38
2023/07/18 04:16:20;;;;;;;5.30;2.80;;;;;;;;;;108348;1273;40585;-36
2023/07/18 04:18:55;;;;;;;4.70;2.70;;;;;;;;;;108314;1271;38831;-36
2023/07/18 04:21:30;;;;;;;5.50;3.00;;;;;;;;;;108272;1263;39894;-36
2023/07/18 04:24:08;;;;;;;4.50;2.70;;;;;;;;;;108292;1270;41681;-37
2023/07/18 04:26:42;;;;;;;5.20;2.80;;;;;;;;;;108294;1269;40953;-37
2023/07/18 04:29:18;;;;;;;4.70;2.90;;;;;;;;;;108280;1272;40042;-36
2023/07/18 04:31:53;;;;;;;4.70;3.10;;;;;;;;;;108174;1271;175436;-37
2023/07/18 04:34:29;;;;;;;4.80;3.00;;;;;;;;;;108322;1268;41738;-37
2023/07/18 04:37:04;;;;;;;5.40;3.20;;;;;;;;;;108328;1271;40840;-37
2023/07/18 04:39:43;;;;;;;4.90;2.80;;;;;;;;;;108339;1272;38526;-37
2023/07/18 04:42:19;;;;;;;4.70;2.70;;;;;;;;;;108202;1273;41252;-36
2023/07/18 04:44:57;;;;;;;4.10;2.80;;;;;;;;;;107619;1273;892083;-37
2023/07/18 04:47:32;;;;;;;4.60;2.80;;;;;;;;;;108326;1260;40971;-37
2023/07/18 04:50:11;;;;;;;5.20;2.70;;;;;;;;;;108259;1273;38587;-37
2023/07/18 04:52:45;;;;;;;5.20;3.20;;;;;;;;;;108281;1261;39962;-37
2023/07/18 04:55:23;;;;;;;4.60;2.80;;;;;;;;;;108331;1259;41594;-37
2023/07/18 04:57:57;;;;;;;5.10;2.60;;;;;;;;;;108339;1272;40607;-37
2023/07/18 05:00:31;;;;;;;5.00;2.80;;;;;;;;;;108318;1271;40018;-37
2023/07/18 05:03:06;;;;;;;4.90;2.80;;;;;;;;;;108246;1262;40363;-38
2023/07/18 05:05:40;;;;;;;4.50;2.70;;;;;;;;;;108259;1273;41756;-37
2023/07/18 05:08:20;;;;;;;4.90;2.90;;;;;;;;;;108297;1265;40828;-36
2023/07/18 05:10:59;;;;;;;4.30;2.70;;;;;;;;;;108114;1262;38902;-37
2023/07/18 05:13:34;;;;;;;4.60;2.60;;;;;;;;;;108308;1269;40122;-37
2023/07/18 05:16:10;;;;;;;4.70;2.80;;;;;;;;;;108353;1271;43118;-37
2023/07/18 05:18:44;;;;;;;5.30;3.10;;;;;;;;;;108320;1260;40730;-37
2023/07/18 05:21:21;;;;;;;5.30;2.80;;;;;;;;;;108352;1272;38594;-37
2023/07/18 05:23:56;;;;;;;5.10;3.20;;;;;;;;;;108274;1264;39912;-37
2023/07/18 05:26:30;;;;;;;4.40;2.80;;;;;;;;;;108269;1270;41399;-36
2023/07/18 05:29:05;;;;;;;4.50;2.70;;;;;;;;;;108253;1272;41847;-37
2023/07/18 05:31:39;;;;;;;5.20;3.10;;;;;;;;;;108287;1273;39977;-37
2023/07/18 05:34:14;;;;;;;4.90;2.90;;;;;;;;;;108298;1260;45521;-38
2023/07/18 05:36:49;;;;;;;6.20;3.40;;;;;;;;;;108332;1272;43253;-37
2023/07/18 05:39:23;;;;;;;6.20;3.20;;;;;;;;;;108298;1259;41904;-37
2023/07/18 05:41:58;;;;;;;5.60;3.20;;;;;;;;;;108250;1257;175569;-37
2023/07/18 05:44:33;;;;;;;5.70;3.40;;;;;;;;;;108242;1273;46992;-37
2023/07/18 05:47:09;;;;;;;5.20;3.30;;;;;;;;;;108251;1272;43021;-37
2023/07/18 05:49:43;;;;;;;5.40;3.30;;;;;;;;;;108317;1267;40601;-36
2023/07/18 05:52:18;;;;;;;6.20;3.50;;;;;;;;;;108225;1263;38817;-36
2023/07/18 05:54:52;;;;;;;8.00;3.60;;;;;;;;;;108199;1266;45529;-35
2023/07/18 05:57:27;;;;;;;5.50;3.10;;;;;;;;;;108234;1263;41466;-36
2023/07/18 06:00:05;;;;;;;5.70;3.20;;;;;;;;;;108254;1271;40749;-37
2023/07/18 06:02:40;;;;;;;5.40;3.40;;;;;;;;;;108236;1272;38763;-35
2023/07/18 06:05:14;;;;;;;6.00;3.30;;;;;;;;;;108270;1269;39827;-36
2023/07/18 06:07:48;;;;;;;5.60;3.50;;;;;;;;;;108262;1272;41850;-37
2023/07/18 06:10:23;;;;;;;6.20;3.40;;;;;;;;;;108279;1260;40991;-37
2023/07/18 06:12:57;;;;;;;6.20;3.70;;;;;;;;;;108089;1273;38748;-36
2023/07/18 06:15:31;;;;;;;6.50;3.60;;;;;;;;;;108258;1273;45157;-37
2023/07/18 06:18:08;;;;;;;5.90;3.40;;;;;;;;;;108075;1271;41485;-37
2023/07/18 06:20:45;;;;;;;6.60;3.50;;;;;;;;;;108270;1274;40547;-40
2023/07/18 06:23:19;;;;;;;6.30;3.40;;;;;;;;;;108202;1273;38632;-35
2023/07/18 06:25:56;;;;;;;6.40;3.60;;;;;;;;;;108284;1270;39774;-35
2023/07/18 06:28:30;;;;;;;6.30;3.70;;;;;;;;;;108256;1272;41954;-37
2023/07/18 06:31:05;;;;;;;6.50;3.80;;;;;;;;;;108253;1268;40734;-36
2023/07/18 06:33:40;;;;;;;6.00;3.20;;;;;;;;;;108230;1257;38534;-36
2023/07/18 06:36:15;;;;;;;5.80;3.30;;;;;;;;;;108146;1272;175637;-36
2023/07/18 06:38:49;;;;;;;6.40;3.30;;;;;;;;;;108242;1266;41800;-36
2023/07/18 06:41:23;;;;;;;6.00;3.30;;;;;;;;;;108284;1273;40819;-36
2023/07/18 06:43:58;;;;;;;5.60;3.30;;;;;;;;;;108190;1262;38633;-36
2023/07/18 06:46:32;;;;;;;6.50;3.20;;;;;;;;;;108307;1271;41570;-35
2023/07/18 06:49:06;;;;;;;5.70;3.40;;;;;;;;;;108286;1272;41632;-37
2023/07/18 06:51:40;;;;;;;6.00;3.30;;;;;;;;;;108260;1258;40736;-36
2023/07/18 06:54:14;;;;;;;5.70;2.80;;;;;;;;;;108270;1257;38749;-36
2023/07/18 06:56:49;;;;;;;8.00;3.50;;;;;;;;;;108240;1270;39742;-36
2023/07/18 06:59:24;;;;;;;10.20;4.40;;;;;;;;;;108290;1269;41785;-36
2023/07/18 07:01:58;;;;;;;10.60;4.30;;;;;;;;;;108261;1273;40641;-36
2023/07/18 07:04:36;;;;;;;11.60;4.80;;;;;;;;;;108228;1257;38682;-36
2023/07/18 07:07:12;;;;;;;11.00;4.60;;;;;;;;;;108296;1269;40105;-36
2023/07/18 07:09:46;;;;;;;9.50;3.20;;;;;;;;;;108257;1273;41717;-36
2023/07/18 07:12:20;;;;;;;9.10;3.50;;;;;;;;;;108330;1272;42464;-36
2023/07/18 07:15:11;;;;;;;7.00;3.10;;;;;;;;;;108255;1262;38902;-36
2023/07/18 07:17:47;;;;;;;6.10;3.10;;;;;;;;;;108262;1272;39803;-36
2023/07/18 07:20:25;;;;;;;6.30;2.90;;;;;;;;;;108346;1261;42204;-36
2023/07/18 07:23:00;;;;;;;6.10;2.50;;;;;;;;;;108121;1273;42103;-35
2023/07/18 07:25:35;;;;;;;4.80;2.20;;;;;;;;;;108257;1260;41204;-36
2023/07/18 07:28:10;;;;;;;5.70;2.30;;;;;;;;;;108319;1272;41207;-36
2023/07/18 07:30:44;;;;;;;4.30;2.10;;;;;;;;;;108253;1265;42146;-36
2023/07/18 07:33:18;;;;;;;4.40;2.10;;;;;;;;;;108273;1269;40892;-35
2023/07/18 07:35:53;;;;;;;4.00;1.90;;;;;;;;;;108191;1261;38627;-35
2023/07/18 07:38:27;;;;;;;4.80;2.00;;;;;;;;;;108267;1273;41250;-36
2023/07/18 07:41:01;;;;;;;4.40;1.80;;;;;;;;;;108315;1270;41778;-35
2023/07/18 07:43:38;;;;;;;4.40;1.70;;;;;;;;;;108314;1272;40842;-36
2023/07/18 07:46:12;;;;;;;4.20;1.70;;;;;;;;;;108217;1260;38717;-36
2023/07/18 07:48:47;;;;;;;3.90;1.60;;;;;;;;;;108209;1271;193491;-36
2023/07/18 07:51:22;;;;;;;3.90;1.60;;;;;;;;;;108302;1272;42912;-36
2023/07/18 07:53:59;;;;;;;4.90;1.80;;;;;;;;;;108338;1258;40420;-36
2023/07/18 07:56:33;;;;;;;5.90;1.90;;;;;;;;;;108310;1258;38697;-37
2023/07/18 07:59:11;;;;;;;4.60;1.50;;;;;;;;;;108352;1273;39778;-37
2023/07/18 08:01:49;;;;;;;4.50;1.40;;;;;;;;;;108276;1260;41545;-37
2023/07/18 08:04:27;;;;;;;4.40;1.30;;;;;;;;;;108301;1273;41736;-39
2023/07/18 08:07:03;;;;;;;4.00;1.40;;;;;;;;;;108227;1261;38801;-38
2023/07/18 08:09:38;;;;;;;3.40;1.40;;;;;;;;;;108311;1273;40156;-40
2023/07/18 08:12:13;;;;;;;3.70;1.30;;;;;;;;;;108269;1270;41509;-38
2023/07/18 08:14:50;;;;;;;3.40;1.50;;;;;;;;;;108220;1272;40503;-35
2023/07/18 08:17:23;;;;;;;4.00;1.70;;;;;;;;;;108212;1263;39171;-38
2023/07/18 08:19:57;;;;;;;4.40;1.70;;;;;;;;;;108199;1271;39851;-36
2023/07/18 08:22:31;;;;;;;4.20;1.90;;;;;;;;;;108281;1269;41965;-38
2023/07/18 08:25:06;;;;;;;5.50;2.00;;;;;;;;;;108286;1267;40766;-38
2023/07/18 08:27:40;;;;;;;6.70;2.20;;;;;;;;;;108233;1260;39956;-37
2023/07/18 08:30:16;;;;;;;5.30;2.40;;;;;;;;;;108235;1257;40853;-38
2023/07/18 08:32:50;;;;;;;5.60;1.80;;;;;;;;;;108364;1260;41974;-42
2023/07/18 08:35:25;;;;;;;5.30;2.10;;;;;;;;;;108296;1257;40806;-38
2023/07/18 08:37:59;;;;;;;4.70;1.80;;;;;;;;;;108189;1261;38716;-38
2023/07/18 08:40:34;;;;;;;7.10;2.50;;;;;;;;;;108265;1263;39980;-38
2023/07/18 08:43:13;;;;;;;4.20;1.80;;;;;;;;;;108262;1261;42910;-38
2023/07/18 08:45:48;;;;;;;6.50;1.90;;;;;;;;;;108294;1257;40780;-38
2023/07/18 08:48:23;;;;;;;5.10;1.90;;;;;;;;;;108215;1257;44480;-38
2023/07/18 08:51:01;;;;;;;4.60;1.90;;;;;;;;;;108166;1257;40102;-37
2023/07/18 08:53:35;;;;;;;5.00;1.90;;;;;;;;;;108273;1260;41616;-38
2023/07/18 08:56:11;;;;;;;4.50;1.70;;;;;;;;;;108219;1273;40468;-38
2023/07/18 08:58:45;;;;;;;4.40;1.80;;;;;;;;;;108389;1260;44599;-38
2023/07/18 09:01:19;;;;;;;4.70;1.70;;;;;;;;;;108256;1271;40044;-38
2023/07/18 09:03:54;;;;;;;3.90;1.40;;;;;;;;;;108277;1262;41829;-38
2023/07/18 09:06:29;;;;;;;4.80;1.90;;;;;;;;;;108217;1263;40770;-38
2023/07/18 09:09:04;;;;;;;4.60;1.60;;;;;;;;;;108261;1269;44197;-37
2023/07/18 09:11:39;;;;;;;4.30;1.70;;;;;;;;;;108284;1270;40072;-38
2023/07/18 09:14:25;;;;;;;4.30;1.70;;;;;;;;;;108250;1261;41499;-39
2023/07/18 09:17:03;;;;;;;3.50;1.50;;;;;;;;;;108177;1273;41933;-38
2023/07/18 09:19:44;;;;;;;3.50;1.40;;;;;;;;;;108315;1264;44512;-38
2023/07/18 09:22:18;;;;;;;4.60;1.40;;;;;;;;;;108229;1270;39923;-37
2023/07/18 09:24:52;;;;;;;4.00;1.50;;;;;;;;;;108038;1261;175501;-38
2023/07/18 09:27:26;;;;;;;3.30;1.20;;;;;;;;;;108182;1270;40917;-38
2023/07/18 09:30:00;;;;;;;3.50;1.30;;;;;;;;;;108278;1260;38984;-37
2023/07/18 09:32:35;;;;;;;4.00;1.10;;;;;;;;;;108204;1260;39859;-39
2023/07/18 09:35:13;;;;;;;3.30;1.20;;;;;;;;;;108302;1272;41795;-37
2023/07/18 09:37:51;;;;;;;3.00;1.20;;;;;;;;;;108152;1257;40768;-38
2023/07/18 09:40:26;;;;;;;2.70;1.10;;;;;;;;;;108136;1273;40327;-38
2023/07/18 09:43:03;;;;;;;3.70;1.20;;;;;;;;;;108132;1262;39836;-37
2023/07/18 09:45:38;;;;;;;3.50;1.10;;;;;;;;;;108309;1260;41800;-38
2023/07/18 09:48:15;;;;;;;3.30;1.10;;;;;;;;;;108231;1257;40789;-38
2023/07/18 09:50:52;;;;;;;3.20;1.10;;;;;;;;;;108303;1264;38798;-38
2023/07/18 09:53:29;;;;;;;3.30;1.20;;;;;;;;;;108284;1272;40099;-37
2023/07/18 09:56:06;;;;;;;3.40;1.20;;;;;;;;;;108289;1260;43199;-39
2023/07/18 09:58:41;;;;;;;4.20;1.50;;;;;;;;;;108148;1257;40527;-38
2023/07/18 10:01:19;;;;;;;2.70;1.20;;;;;;;;;;108285;1272;38621;-43
2023/07/18 10:03:55;;;;;;;3.10;1.10;;;;;;;;;;108278;1258;40125;-37
2023/07/18 10:06:31;;;;;;;3.40;1.00;;;;;;;;;;108217;1273;41703;-37
2023/07/18 10:09:07;;;;;;;3.10;1.30;;;;;;;;;;108263;1259;40772;-40
2023/07/18 10:12:11;;;;;;;3.80;1.20;;;;;;;;;;108256;1273;38702;-37
2023/07/18 10:15:00;;;;;;;3.20;1.20;;;;;;;;;;108188;1272;39820;-41
2023/07/18 10:17:43;;;;;;;4.70;1.20;;;;;;;;;;108245;1261;43577;-38
2023/07/18 10:20:22;;;;;;;3.60;1.10;;;;;;;;;;108252;1260;40899;-37
2023/07/18 10:22:59;;;;;;;4.10;1.10;;;;;;;;;;108243;1271;40072;-38
2023/07/18 10:25:34;;;;;;;3.00;1.30;;;;;;;;;;108211;1264;40228;-39
2023/07/18 10:28:09;;;;;;;3.10;1.10;;;;;;;;;;108294;1267;41867;-38
2023/07/18 10:30:44;;;;;;;3.00;1.10;;;;;;;;;;108198;1269;42106;-38
2023/07/18 10:33:18;;;;;;;2.70;1.00;;;;;;;;;;108307;1267;38700;-38
2023/07/18 10:35:56;;;;;;;2.50;0.90;;;;;;;;;;108294;1271;39943;-39
2023/07/18 10:38:38;;;;;;;3.70;1.10;;;;;;;;;;108223;1260;41694;-39
2023/07/18 10:41:11;;;;;;;2.50;1.00;;;;;;;;;;108389;1260;46344;-39
2023/07/18 10:43:50;;;;;;;2.80;1.10;;;;;;;;;;108245;1270;38841;-39
2023/07/18 10:46:24;;;;;;;3.20;1.10;;;;;;;;;;108231;1267;41369;-39
2023/07/18 10:48:58;;;;;;;2.30;1.20;;;;;;;;;;108219;1272;44153;-40
2023/07/18 10:51:35;;;;;;;3.20;1.20;;;;;;;;;;108240;1259;47400;-39
2023/07/18 10:54:10;;;;;;;3.20;1.10;;;;;;;;;;108307;1260;38885;-40
2023/07/18 10:56:44;;;;;;;2.60;1.10;;;;;;;;;;108236;1273;39957;-39
2023/07/18 10:59:18;;;;;;;2.50;1.10;;;;;;;;;;108294;1267;42954;-39
2023/07/18 11:01:51;;;;;;;3.10;1.00;;;;;;;;;;108223;1258;46503;-39
2023/07/18 11:04:28;;;;;;;2.70;1.10;;;;;;;;;;108250;1272;38626;-39
2023/07/18 11:07:02;;;;;;;2.40;1.10;;;;;;;;;;108147;1270;40283;-39
2023/07/18 11:09:37;;;;;;;2.80;1.20;;;;;;;;;;108266;1272;41686;-36
2023/07/18 11:12:19;;;;;;;2.70;1.10;;;;;;;;;;108154;1260;47031;-36
2023/07/18 11:14:54;;;;;;;2.60;1.10;;;;;;;;;;108063;1259;38640;-36
2023/07/18 11:17:29;;;;;;;3.50;1.20;;;;;;;;;;108169;1267;39755;-37
2023/07/18 11:20:04;;;;;;;3.20;1.10;;;;;;;;;;108227;1262;44500;-35
2023/07/18 11:22:41;;;;;;;2.70;1.10;;;;;;;;;;108204;1264;46764;-35
2023/07/18 11:25:16;;;;;;;3.50;1.30;;;;;;;;;;108266;1267;39931;-35
2023/07/18 11:27:52;;;;;;;2.10;0.90;;;;;;;;;;108272;1261;40038;-37
2023/07/18 11:30:28;;;;;;;2.60;0.90;;;;;;;;;;108139;1259;44067;-37
2023/07/18 11:33:02;;;;;;;3.30;1.00;;;;;;;;;;108214;1270;41232;-37
2023/07/18 11:35:36;;;;;;;4.30;0.90;;;;;;;;;;108292;1269;39070;-35
2023/07/18 11:38:12;;;;;;;2.80;0.90;;;;;;;;;;108330;1260;41901;-37
2023/07/18 11:40:46;;;;;;;3.30;1.00;;;;;;;;;;108153;1257;44423;-41
2023/07/18 11:43:24;;;;;;;2.70;0.80;;;;;;;;;;108257;1261;41625;-36
2023/07/18 11:46:00;;;;;;;3.30;0.90;;;;;;;;;;108172;1260;175399;-37
2023/07/18 11:48:37;;;;;;;1.70;0.80;;;;;;;;;;108199;1270;121067;-38
2023/07/18 11:51:13;;;;;;;2.40;0.80;;;;;;;;;;108222;1257;43591;-37
2023/07/18 11:53:46;;;;;;;2.50;0.90;;;;;;;;;;108301;1272;43447;-36
2023/07/18 11:56:21;;;;;;;3.00;0.90;;;;;;;;;;108345;1269;38808;-37
2023/07/18 11:58:57;;;;;;;2.60;1.00;;;;;;;;;;108304;1267;41347;-36
2023/07/18 12:01:34;;;;;;;2.90;0.80;;;;;;;;;;108148;1260;42146;-37
2023/07/18 12:04:16;;;;;;;2.90;0.80;;;;;;;;;;108255;1270;42517;-36
2023/07/18 12:06:50;;;;;;;3.20;0.80;;;;;;;;;;108222;1264;38993;-37
2023/07/18 12:09:24;;;;;;;2.90;0.90;;;;;;;;;;108227;1264;40300;-37
2023/07/18 12:12:03;;;;;;;2.70;1.10;;;;;;;;;;108223;1260;42196;-40
2023/07/18 12:14:38;;;;;;;4.30;1.30;;;;;;;;;;108190;1261;41345;-37
2023/07/18 12:17:12;;;;;;;3.50;1.00;;;;;;;;;;108243;1272;38783;-35
2023/07/18 12:19:46;;;;;;;2.90;0.90;;;;;;;;;;108141;1260;175387;-37
2023/07/18 12:22:21;;;;;;;3.30;0.90;;;;;;;;;;108263;1260;43228;-36
2023/07/18 12:24:55;;;;;;;2.70;0.90;;;;;;;;;;108166;1261;41543;-40
2023/07/18 12:27:30;;;;;;;2.30;0.80;;;;;;;;;;108277;1260;40319;-39
2023/07/18 12:30:05;;;;;;;3.50;0.80;;;;;;;;;;108223;1271;40055;-36
2023/07/18 12:32:38;;;;;;;3.70;1.00;;;;;;;;;;108197;1257;42167;-36
2023/07/18 12:35:14;;;;;;;2.90;0.80;;;;;;;;;;108294;1272;41117;-39
2023/07/18 12:37:49;;;;;;;2.50;0.80;;;;;;;;;;108290;1273;38633;-36
2023/07/18 12:40:23;;;;;;;3.70;0.90;;;;;;;;;;108198;1260;41453;-37
2023/07/18 12:42:58;;;;;;;2.20;0.80;;;;;;;;;;108113;1261;42124;-37
2023/07/18 12:45:34;;;;;;;2.60;0.80;;;;;;;;;;108235;1260;41199;-37
2023/07/18 12:48:09;;;;;;;2.60;0.80;;;;;;;;;;108237;1269;38988;-37
2023/07/18 12:50:43;;;;;;;3.00;1.00;;;;;;;;;;108308;1260;40467;-37
2023/07/18 12:53:17;;;;;;;2.40;0.90;;;;;;;;;;108207;1257;41932;-35
2023/07/18 12:55:51;;;;;;;2.90;0.80;;;;;;;;;;108252;1269;41213;-36
2023/07/18 12:58:27;;;;;;;3.10;0.90;;;;;;;;;;108275;1267;38851;-37
2023/07/18 13:01:03;;;;;;;3.70;1.00;;;;;;;;;;108303;1269;40197;-36
2023/07/18 13:03:37;;;;;;;3.00;0.90;;;;;;;;;;108170;1260;42404;-36
2023/07/18 13:06:11;;;;;;;3.00;1.00;;;;;;;;;;108270;1269;41205;-34
2023/07/18 13:08:45;;;;;;;2.70;0.90;;;;;;;;;;108187;1257;39165;-35
2023/07/18 13:11:19;;;;;;;2.50;0.80;;;;;;;;;;108278;1260;41805;-35
2023/07/18 13:13:53;;;;;;;2.30;0.90;;;;;;;;;;108169;1260;42075;-36
2023/07/18 13:16:26;;;;;;;2.20;0.70;;;;;;;;;;108246;1269;43382;-38
2023/07/18 13:19:00;;;;;;;2.50;0.70;;;;;;;;;;108172;1268;38839;-34
2023/07/18 13:21:34;;;;;;;2.10;0.80;;;;;;;;;;108204;1270;40405;-34
2023/07/18 13:24:09;;;;;;;1.70;0.60;;;;;;;;;;108181;1256;42626;-34
2023/07/18 13:26:44;;;;;;;2.50;0.70;;;;;;;;;;108282;1272;42720;-34
2023/07/18 13:29:17;;;;;;;2.30;0.70;;;;;;;;;;108118;1269;175069;-34
2023/07/18 13:31:56;;;;;;;3.60;0.80;;;;;;;;;;108274;1269;40627;-36
2023/07/18 13:34:30;;;;;;;2.30;0.70;;;;;;;;;;108184;1260;43532;-36
2023/07/18 13:37:06;;;;;;;2.40;0.70;;;;;;;;;;108321;1259;42508;-35
2023/07/18 13:39:41;;;;;;;2.00;0.70;;;;;;;;;;108258;1272;40237;-36
2023/07/18 13:42:15;;;;;;;2.40;0.70;;;;;;;;;;108217;1270;43357;-36
2023/07/18 13:44:50;;;;;;;1.70;0.60;;;;;;;;;;108254;1256;42265;-36
2023/07/18 13:47:26;;;;;;;2.00;0.70;;;;;;;;;;108054;1271;194223;-36
2023/07/18 13:50:01;;;;;;;1.60;0.60;;;;;;;;;;108261;1260;40023;-38
2023/07/18 13:52:37;;;;;;;2.60;0.70;;;;;;;;;;108324;1270;40222;-37
2023/07/18 13:55:12;;;;;;;3.00;0.70;;;;;;;;;;108128;1261;43325;-37
2023/07/18 13:57:46;;;;;;;2.20;0.70;;;;;;;;;;108303;1259;40986;-37
2023/07/18 14:00:21;;;;;;;1.70;0.70;;;;;;;;;;108282;1265;40034;-37
2023/07/18 14:02:55;;;;;;;2.50;0.80;;;;;;;;;;108188;1258;40199;-37
2023/07/18 14:05:30;;;;;;;2.50;0.70;;;;;;;;;;108295;1260;42008;-35
2023/07/18 14:08:12;;;;;;;2.20;0.70;;;;;;;;;;108311;1257;41078;-35
2023/07/18 14:10:47;;;;;;;1.80;0.60;;;;;;;;;;108219;1267;40045;-38
2023/07/18 14:13:23;;;;;;;2.50;0.70;;;;;;;;;;108335;1269;40190;-37
2023/07/18 14:15:58;;;;;;;2.20;0.70;;;;;;;;;;108205;1260;47800;-38
2023/07/18 14:18:33;;;;;;;1.90;0.60;;;;;;;;;;108196;1272;41202;-39
2023/07/18 14:21:07;;;;;;;2.80;0.80;;;;;;;;;;108379;1259;38871;-36
2023/07/18 14:23:43;;;;;;;2.20;0.80;;;;;;;;;;108290;1272;39958;-36
2023/07/18 14:26:20;;;;;;;3.20;0.70;;;;;;;;;;108195;1259;47834;-37
2023/07/18 14:28:55;;;;;;;1.70;0.60;;;;;;;;;;108190;1257;43582;-35
2023/07/18 14:31:29;;;;;;;2.50;0.80;;;;;;;;;;108266;1272;38687;-34
2023/07/18 14:34:04;;;;;;;2.50;0.70;;;;;;;;;;108261;1261;40070;-36
2023/07/18 14:36:40;;;;;;;2.30;0.70;;;;;;;;;;108046;1258;48690;-36
2023/07/18 14:39:14;;;;;;;1.70;0.50;;;;;;;;;;108252;1264;41182;-36
2023/07/18 14:41:49;;;;;;;1.80;0.70;;;;;;;;;;108180;1262;38996;-35
2023/07/18 14:44:23;;;;;;;2.10;0.60;;;;;;;;;;108148;1270;41431;-35
2023/07/18 14:47:00;;;;;;;2.40;0.80;;;;;;;;;;108141;1261;48045;-38
2023/07/18 14:49:34;;;;;;;2.60;0.60;;;;;;;;;;108274;1257;40966;-38
2023/07/18 14:52:09;;;;;;;1.60;0.60;;;;;;;;;;108119;1272;175404;-37
2023/07/18 14:54:44;;;;;;;2.20;0.70;;;;;;;;;;108272;1264;39974;-36
2023/07/18 14:57:19;;;;;;;2.20;0.80;;;;;;;;;;108201;1262;48982;-36
2023/07/18 14:59:53;;;;;;;1.80;0.70;;;;;;;;;;108205;1260;41058;-35
2023/07/18 15:02:28;;;;;;;2.00;0.70;;;;;;;;;;108193;1272;40065;-36
2023/07/18 15:05:07;;;;;;;1.40;0.60;;;;;;;;;;108286;1264;41806;-36
2023/07/18 15:07:41;;;;;;;1.90;0.60;;;;;;;;;;108154;1262;47662;-36
2023/07/18 15:10:16;;;;;;;2.20;0.60;;;;;;;;;;108227;1261;40970;-36
2023/07/18 15:12:51;;;;;;;2.20;0.70;;;;;;;;;;108254;1260;38898;-36
2023/07/18 15:15:27;;;;;;;1.70;0.60;;;;;;;;;;108216;1272;40447;-36